createdAt,value
2017-09-01T00:00:22.862Z,3.43
2017-09-01T00:02:49.247Z,3.00
2017-09-01T00:05:15.603Z,2.97
2017-09-01T00:07:42.063Z,3.80
2017-09-01T00:10:08.452Z,4.20
2017-09-01T00:12:34.951Z,3.90
2017-09-01T00:15:01.384Z,3.90
2017-09-01T00:17:27.747Z,3.10
2017-09-01T00:19:54.167Z,4.80
2017-09-01T00:22:21.627Z,4.50
2017-09-01T00:24:48.136Z,4.63
2017-09-01T00:27:14.527Z,3.27
2017-09-01T00:29:40.944Z,4.53
2017-09-01T00:32:07.356Z,4.73
2017-09-01T00:34:33.790Z,4.33
2017-09-01T00:37:00.253Z,5.23
2017-09-01T00:39:26.679Z,5.57
2017-09-01T00:41:53.080Z,4.47
2017-09-01T00:44:19.496Z,4.53
2017-09-01T00:46:46.907Z,4.53
2017-09-01T00:49:13.349Z,5.17
2017-09-01T00:51:39.787Z,4.90
2017-09-01T00:54:06.257Z,4.50
2017-09-01T00:56:32.747Z,4.50
2017-09-01T00:58:59.151Z,5.50
2017-09-01T01:01:25.580Z,5.10
2017-09-01T01:03:52.034Z,4.53
2017-09-01T01:06:18.416Z,4.90
2017-09-01T01:08:44.791Z,4.97
2017-09-01T01:11:11.279Z,3.87
2017-09-01T01:13:38.795Z,5.20
2017-09-01T01:16:05.180Z,4.07
2017-09-01T01:18:31.654Z,4.30
2017-09-01T01:20:58.075Z,4.70
2017-09-01T01:23:24.472Z,4.50
2017-09-01T01:25:50.940Z,4.60
2017-09-01T01:28:17.413Z,4.37
2017-09-01T01:30:43.818Z,6.27
2017-09-01T01:33:10.273Z,4.83
2017-09-01T01:35:36.690Z,5.37
2017-09-01T01:38:03.144Z,5.67
2017-09-01T01:40:29.570Z,4.90
2017-09-01T01:42:55.975Z,5.20
2017-09-01T01:45:22.392Z,5.57
2017-09-01T01:47:48.811Z,5.50
2017-09-01T01:50:15.256Z,5.57
2017-09-01T01:52:42.825Z,5.33
2017-09-01T01:55:10.307Z,5.17
2017-09-01T01:57:36.747Z,5.13
2017-09-01T02:00:03.135Z,4.47
2017-09-01T02:02:29.548Z,4.40
2017-09-01T02:04:55.972Z,5.10
2017-09-01T02:07:22.453Z,6.00
2017-09-01T02:09:49.978Z,4.63
2017-09-01T02:12:17.118Z,5.40
2017-09-01T02:14:44.660Z,4.80
2017-09-01T02:17:11.835Z,5.53
2017-09-01T02:19:39.087Z,5.00
2017-09-01T02:22:06.232Z,5.50
2017-09-01T02:24:33.769Z,4.70
2017-09-01T02:27:00.887Z,6.10
2017-09-01T02:29:28.455Z,7.33
2017-09-01T02:31:56.043Z,5.53
2017-09-01T02:34:22.489Z,5.80
2017-09-01T03:58:46.427Z,6.87
2017-09-01T04:01:13.617Z,8.68
2017-09-01T04:03:40.744Z,7.50
2017-09-01T04:06:07.956Z,8.90
2017-09-01T04:08:35.139Z,9.48
2017-09-01T04:11:02.595Z,9.65
2017-09-01T04:13:29.400Z,8.98
2017-09-01T04:15:55.790Z,9.95
2017-09-01T04:18:22.243Z,8.23
2017-09-01T05:42:45.031Z,10.30
2017-09-01T07:07:09.782Z,14.77
2017-09-01T07:09:38.151Z,15.60
2017-09-01T07:12:06.707Z,16.53
2017-09-01T07:14:35.160Z,16.27
2017-09-01T07:17:03.579Z,16.43
2017-09-01T07:19:31.987Z,14.97
2017-09-01T07:22:00.404Z,15.23
2017-09-01T07:24:28.794Z,15.00
2017-09-01T07:26:57.155Z,17.30
2017-09-01T07:29:25.575Z,16.77
2017-09-01T07:31:54.003Z,15.53
2017-09-01T07:34:22.387Z,15.60
2017-09-01T07:36:50.882Z,15.57
2017-09-01T07:39:19.269Z,15.93
2017-09-01T07:41:47.613Z,16.70
2017-09-01T07:44:16.031Z,16.50
2017-09-01T07:46:44.391Z,16.00
2017-09-01T07:49:12.759Z,15.00
2017-09-01T07:51:41.184Z,15.17
2017-09-01T07:54:09.626Z,14.40
2017-09-01T07:56:37.981Z,12.97
2017-09-01T07:59:06.446Z,14.80
2017-09-01T08:01:34.859Z,12.83
2017-09-01T08:04:09.344Z,13.37
2017-09-01T08:06:37.795Z,13.17
2017-09-01T08:09:06.200Z,11.90
2017-09-01T08:11:34.671Z,11.90
2017-09-01T08:14:03.094Z,11.87
2017-09-01T08:16:31.539Z,12.47
2017-09-01T08:18:59.954Z,11.20
2017-09-01T08:21:28.375Z,11.27
2017-09-01T08:23:56.807Z,9.00
2017-09-01T08:26:25.220Z,10.47
2017-09-01T08:28:53.611Z,8.57
2017-09-01T08:31:23.039Z,9.47
2017-09-01T08:33:51.439Z,8.30
2017-09-01T08:36:19.894Z,8.37
2017-09-01T08:38:48.274Z,8.27
2017-09-01T08:41:16.674Z,6.70
2017-09-01T08:43:45.103Z,6.87
2017-09-01T08:46:13.447Z,7.07
2017-09-01T08:48:41.844Z,6.20
2017-09-01T08:51:10.207Z,5.20
2017-09-01T08:53:38.618Z,7.47
2017-09-01T08:56:07.043Z,6.10
2017-09-01T08:58:35.439Z,6.17
2017-09-01T09:01:03.807Z,6.23
2017-09-01T09:03:32.239Z,6.30
2017-09-01T09:06:00.619Z,6.23
2017-09-01T09:08:29.017Z,6.17
2017-09-01T09:10:57.395Z,5.57
2017-09-01T09:13:25.835Z,5.53
2017-09-01T09:15:54.211Z,5.67
2017-09-01T09:18:22.620Z,5.30
2017-09-01T09:20:51.071Z,5.73
2017-09-01T09:23:19.431Z,4.63
2017-09-01T09:25:47.834Z,5.97
2017-09-01T09:28:16.217Z,5.70
2017-09-01T09:30:44.551Z,6.60
2017-09-01T09:33:12.895Z,6.00
2017-09-01T09:35:41.251Z,6.13
2017-09-01T09:38:09.607Z,6.87
2017-09-01T09:40:38.002Z,4.77
2017-09-01T09:43:06.395Z,6.57
2017-09-01T09:45:34.779Z,6.97
2017-09-01T09:48:03.205Z,6.60
2017-09-01T09:50:31.610Z,6.00
2017-09-01T09:53:00.003Z,6.07
2017-09-01T09:55:28.408Z,5.80
2017-09-01T09:57:57.829Z,5.40
2017-09-01T10:00:27.287Z,7.07
2017-09-01T10:02:55.707Z,5.40
2017-09-01T10:05:24.079Z,5.20
2017-09-01T10:07:52.471Z,5.53
2017-09-01T10:10:20.875Z,5.67
2017-09-01T10:12:49.306Z,5.57
2017-09-01T10:15:17.698Z,4.27
2017-09-01T10:17:46.160Z,5.20
2017-09-01T10:20:14.593Z,5.43
2017-09-01T10:22:42.991Z,4.53
2017-09-01T10:25:11.427Z,5.90
2017-09-01T10:27:39.831Z,5.03
2017-09-01T10:30:09.266Z,4.70
2017-09-01T10:32:37.674Z,5.17
2017-09-01T10:35:06.139Z,5.00
2017-09-01T10:37:34.510Z,4.90
2017-09-01T10:40:02.935Z,4.70
2017-09-01T10:42:31.347Z,5.10
2017-09-01T10:44:59.765Z,5.83
2017-09-01T10:47:34.383Z,5.10
2017-09-01T10:50:08.826Z,5.27
2017-09-01T10:52:43.433Z,5.07
2017-09-01T10:55:17.811Z,4.67
2017-09-01T10:57:52.411Z,5.20
2017-09-01T11:00:20.824Z,4.80
2017-09-01T11:02:49.290Z,4.77
2017-09-01T11:05:18.699Z,4.40
2017-09-01T11:07:47.158Z,4.40
2017-09-01T11:10:15.563Z,3.63
2017-09-01T11:12:43.995Z,6.20
2017-09-01T11:15:12.351Z,5.27
2017-09-01T11:17:40.763Z,4.53
2017-09-01T11:20:15.232Z,5.00
2017-09-01T11:22:50.763Z,4.20
2017-09-01T11:25:19.176Z,5.37
2017-09-01T11:27:47.577Z,4.90
2017-09-01T11:30:16.018Z,4.70
2017-09-01T11:32:44.404Z,4.83
2017-09-01T11:35:12.822Z,4.20
2017-09-01T11:37:41.175Z,4.07
2017-09-01T11:40:09.547Z,4.07
2017-09-01T11:42:37.915Z,4.47
2017-09-01T11:45:06.321Z,3.80
2017-09-01T11:47:34.773Z,3.73
2017-09-01T11:50:03.172Z,3.93
2017-09-01T11:52:31.612Z,3.97
2017-09-01T11:55:00.003Z,3.33
2017-09-01T11:57:28.404Z,3.40
2017-09-01T11:59:56.734Z,4.30
2017-09-01T12:02:25.103Z,4.00
2017-09-01T12:04:53.585Z,3.97
2017-09-01T12:07:21.959Z,3.63
2017-09-01T12:09:50.371Z,3.53
2017-09-01T12:12:18.809Z,2.87
2017-09-01T12:14:47.215Z,4.37
2017-09-01T12:17:15.638Z,3.43
2017-09-01T12:19:44.047Z,3.83
2017-09-01T12:22:12.486Z,2.10
2017-09-01T12:24:40.902Z,2.77
2017-09-01T12:27:09.331Z,3.20
2017-09-01T12:29:37.727Z,2.53
2017-09-01T12:32:06.121Z,2.70
2017-09-01T12:34:34.512Z,3.57
2017-09-01T12:37:02.863Z,3.00
2017-09-01T12:39:31.288Z,2.50
2017-09-01T12:41:59.687Z,2.67
2017-09-01T12:44:28.115Z,1.77
2017-09-01T12:46:56.527Z,2.40
2017-09-01T12:49:24.942Z,2.10
2017-09-01T12:51:53.374Z,1.90
2017-09-01T12:54:21.756Z,1.90
2017-09-01T12:56:50.209Z,1.70
2017-09-01T12:59:18.580Z,2.60
2017-09-01T13:01:46.939Z,1.73
2017-09-01T13:04:15.351Z,2.00
2017-09-01T13:06:44.799Z,1.93
2017-09-01T13:09:13.227Z,2.10
2017-09-01T13:11:41.635Z,2.33
2017-09-01T13:14:10.063Z,2.53
2017-09-01T13:16:38.747Z,2.90
2017-09-01T13:19:07.159Z,2.20
2017-09-01T13:21:35.555Z,2.23
2017-09-01T13:24:03.951Z,2.20
2017-09-01T13:26:32.368Z,2.57
2017-09-01T13:29:00.739Z,2.27
2017-09-01T13:31:29.186Z,2.30
2017-09-01T13:33:57.571Z,1.80
2017-09-01T13:36:23.932Z,2.90
2017-09-01T13:38:50.379Z,2.10
2017-09-01T13:41:17.919Z,1.90
2017-09-01T13:43:46.337Z,2.37
2017-09-01T13:46:12.731Z,2.17
2017-09-01T13:48:40.258Z,2.37
2017-09-01T13:51:08.611Z,1.73
2017-09-01T13:53:37.059Z,1.87
2017-09-01T13:56:05.506Z,1.57
2017-09-01T13:58:33.884Z,1.80
2017-09-01T14:01:02.251Z,3.70
2017-09-01T14:03:30.667Z,1.77
2017-09-01T14:05:59.072Z,2.50
2017-09-01T14:08:27.460Z,1.70
2017-09-01T14:10:55.839Z,1.97
2017-09-01T14:13:24.195Z,2.13
2017-09-01T14:15:52.555Z,1.60
2017-09-01T14:18:20.970Z,2.30
2017-09-01T14:20:49.372Z,2.00
2017-09-01T14:23:17.786Z,1.97
2017-09-01T14:25:46.306Z,2.00
2017-09-01T14:28:14.663Z,2.60
2017-09-01T14:30:43.082Z,2.57
2017-09-01T14:33:11.470Z,2.23
2017-09-01T14:35:37.887Z,1.87
2017-09-01T14:38:04.306Z,2.53
2017-09-01T14:40:32.682Z,2.10
2017-09-01T14:43:01.059Z,2.13
2017-09-01T14:45:29.455Z,2.40
2017-09-01T14:47:57.830Z,1.90
2017-09-01T14:50:26.271Z,2.80
2017-09-01T14:52:54.666Z,1.93
2017-09-01T14:55:23.076Z,2.40
2017-09-01T14:57:51.431Z,2.17
2017-09-01T15:00:19.940Z,2.93
2017-09-01T15:02:48.371Z,2.27
2017-09-01T15:05:14.754Z,2.30
2017-09-01T15:07:42.236Z,1.80
2017-09-01T15:10:08.675Z,2.43
2017-09-01T15:12:35.037Z,2.40
2017-09-01T15:15:02.587Z,2.63
2017-09-01T15:17:30.111Z,2.70
2017-09-01T15:19:56.499Z,2.37
2017-09-01T15:22:24.049Z,2.67
2017-09-01T15:24:51.539Z,2.00
2017-09-01T15:27:17.955Z,2.90
2017-09-01T15:29:44.346Z,2.53
2017-09-01T15:32:10.727Z,2.80
2017-09-01T15:34:38.244Z,2.50
2017-09-01T15:37:05.750Z,2.37
2017-09-01T15:39:32.192Z,2.93
2017-09-01T15:42:00.592Z,2.17
2017-09-01T15:44:29.140Z,1.90
2017-09-01T15:46:55.547Z,2.40
2017-09-01T15:49:21.896Z,1.87
2017-09-01T15:51:48.251Z,2.37
2017-09-01T15:54:15.758Z,1.87
2017-09-01T15:56:42.155Z,2.80
2017-09-01T15:59:09.643Z,2.27
2017-09-01T16:01:36.059Z,2.00
2017-09-01T16:04:02.505Z,2.40
2017-09-01T16:06:28.932Z,2.27
2017-09-01T16:08:55.317Z,2.17
2017-09-01T16:11:21.804Z,2.33
2017-09-01T16:13:50.200Z,2.13
2017-09-01T16:16:18.577Z,2.10
2017-09-01T16:18:46.962Z,2.60
2017-09-01T16:21:15.355Z,1.97
2017-09-01T16:23:43.777Z,2.20
2017-09-01T16:26:12.154Z,2.10
2017-09-01T16:28:40.556Z,1.90
2017-09-01T16:31:08.943Z,2.23
2017-09-01T16:33:37.415Z,1.97
2017-09-01T16:36:05.815Z,2.13
2017-09-01T16:38:34.256Z,2.30
2017-09-01T16:41:02.665Z,2.27
2017-09-01T16:43:31.099Z,2.03
2017-09-01T16:45:59.478Z,1.80
2017-09-01T16:48:27.915Z,2.40
2017-09-01T16:50:56.355Z,2.53
2017-09-01T16:53:24.775Z,1.97
2017-09-01T16:55:53.166Z,2.10
2017-09-01T16:58:21.598Z,2.20
2017-09-01T17:00:50.182Z,2.47
2017-09-01T17:03:18.637Z,2.80
2017-09-01T17:05:47.051Z,2.43
2017-09-01T17:08:15.431Z,2.90
2017-09-01T17:10:43.839Z,2.60
2017-09-01T17:13:12.246Z,2.70
2017-09-01T17:15:40.665Z,3.13
2017-09-01T17:18:09.059Z,2.70
2017-09-01T17:20:37.427Z,2.60
2017-09-01T17:23:05.888Z,3.20
2017-09-01T17:25:34.247Z,2.93
2017-09-01T17:28:02.604Z,2.50
2017-09-01T17:30:31.037Z,3.53
2017-09-01T17:32:59.446Z,3.63
2017-09-01T17:35:27.875Z,2.60
2017-09-01T17:37:56.251Z,3.07
2017-09-01T17:40:24.648Z,3.20
2017-09-01T17:42:53.055Z,3.13
2017-09-01T17:45:21.511Z,3.60
2017-09-01T17:47:50.906Z,3.27
2017-09-01T17:50:19.324Z,2.93
2017-09-01T17:52:47.764Z,2.80
2017-09-01T17:55:16.183Z,3.00
2017-09-01T17:57:44.612Z,3.20
2017-09-01T18:00:13.087Z,3.57
2017-09-01T18:02:41.550Z,3.37
2017-09-01T18:05:10.101Z,2.53
2017-09-01T18:07:38.598Z,3.80
2017-09-01T18:10:07.234Z,2.63
2017-09-01T18:12:36.030Z,3.43
2017-09-01T18:15:04.815Z,3.70
2017-09-01T18:17:33.811Z,3.10
2017-09-01T18:20:02.692Z,3.17
2017-09-01T18:22:31.376Z,3.40
2017-09-01T18:24:59.938Z,3.37
2017-09-01T18:27:28.539Z,3.90
2017-09-01T18:29:57.320Z,4.07
2017-09-01T18:32:26.022Z,3.50
2017-09-01T18:34:54.899Z,3.80
2017-09-01T18:37:23.873Z,3.63
2017-09-01T18:39:52.624Z,3.50
2017-09-01T18:42:21.483Z,3.10
2017-09-01T18:44:50.355Z,3.50
2017-09-01T18:47:19.557Z,2.63
2017-09-01T18:49:48.911Z,2.30
2017-09-01T18:52:18.529Z,2.93
2017-09-01T18:54:48.230Z,3.20
2017-09-01T18:57:17.953Z,2.60
2017-09-01T18:59:47.617Z,2.87
2017-09-01T19:02:17.315Z,2.53
2017-09-01T19:04:48.205Z,3.20
2017-09-01T19:07:17.920Z,3.00
2017-09-01T19:09:47.688Z,3.10
2017-09-01T19:12:17.655Z,2.80
2017-09-01T19:14:47.578Z,2.80
2017-09-01T19:17:17.345Z,3.57
2017-09-01T19:19:47.031Z,3.07
2017-09-01T19:22:16.861Z,3.00
2017-09-01T19:24:46.666Z,2.43
2017-09-01T19:27:16.413Z,3.13
2017-09-01T19:29:46.283Z,3.37
2017-09-01T19:32:15.981Z,2.87
2017-09-01T19:34:45.712Z,2.80
2017-09-01T19:37:15.587Z,2.80
2017-09-01T19:39:45.492Z,2.97
2017-09-01T19:42:15.211Z,3.17
2017-09-01T19:44:45.178Z,3.00
2017-09-01T19:47:14.910Z,3.50
2017-09-01T19:49:44.605Z,2.90
2017-09-01T19:52:13.949Z,3.40
2017-09-01T19:54:42.429Z,2.77
2017-09-01T19:57:11.178Z,3.30
2017-09-01T19:59:40.243Z,3.33
2017-09-01T20:02:09.364Z,2.67
2017-09-01T20:04:37.263Z,3.60
2017-09-01T20:07:05.448Z,3.10
2017-09-01T20:09:34.225Z,4.07
2017-09-01T20:12:02.028Z,3.00
2017-09-01T20:14:29.977Z,3.30
2017-09-01T20:16:58.314Z,4.00
2017-09-01T20:19:26.075Z,4.00
2017-09-01T20:21:54.248Z,3.00
2017-09-01T20:24:22.226Z,3.83
2017-09-01T20:26:50.136Z,3.00
2017-09-01T20:29:18.280Z,2.80
2017-09-01T20:31:46.108Z,2.90
2017-09-01T20:34:13.906Z,2.80
2017-09-01T20:36:42.320Z,2.93
2017-09-01T20:39:10.187Z,3.20
2017-09-01T20:41:39.726Z,3.37
2017-09-01T20:44:09.569Z,3.00
2017-09-01T20:46:39.242Z,3.10
2017-09-01T20:49:09.090Z,2.90
2017-09-01T20:51:38.641Z,3.50
2017-09-01T20:54:08.458Z,2.80
2017-09-01T20:56:38.295Z,2.97
2017-09-01T20:59:08.165Z,3.80
2017-09-01T21:01:37.887Z,3.30
2017-09-01T21:04:07.480Z,3.60
2017-09-01T21:06:36.805Z,2.63
2017-09-01T21:09:05.898Z,2.73
2017-09-01T21:11:35.353Z,3.73
2017-09-01T21:14:04.385Z,3.07
2017-09-01T21:16:33.326Z,3.70
2017-09-01T21:19:02.094Z,3.13
2017-09-01T21:21:30.627Z,3.17
2017-09-01T21:23:59.084Z,3.20
2017-09-01T21:26:27.598Z,3.23
2017-09-01T21:28:56.021Z,3.70
2017-09-01T21:31:24.454Z,3.70
2017-09-01T21:33:52.916Z,2.57
2017-09-01T21:36:21.383Z,3.13
2017-09-01T21:38:49.791Z,3.43
2017-09-01T21:41:18.247Z,3.37
2017-09-01T21:43:46.659Z,3.50
2017-09-01T21:46:15.043Z,3.20
2017-09-01T21:48:43.495Z,3.20
2017-09-01T21:51:11.907Z,3.80
2017-09-01T21:53:40.325Z,3.50
2017-09-01T21:56:09.602Z,3.43
2017-09-01T21:58:38.028Z,3.83
2017-09-01T22:01:12.534Z,3.53
2017-09-01T22:03:41.541Z,3.53
2017-09-01T22:06:10.079Z,3.50
2017-09-01T22:08:38.473Z,3.60
2017-09-01T22:11:06.911Z,4.07
2017-09-01T22:13:35.306Z,3.23
2017-09-01T22:16:03.679Z,3.60
2017-09-01T22:18:32.107Z,3.90
2017-09-01T22:21:00.501Z,3.83
2017-09-01T22:23:28.934Z,3.57
2017-09-01T22:25:57.347Z,3.97
2017-09-01T22:28:25.779Z,3.77
2017-09-01T22:30:54.184Z,3.60
2017-09-01T22:33:22.633Z,3.70
2017-09-01T22:35:50.997Z,3.67
2017-09-01T22:38:19.451Z,4.00
2017-09-01T22:40:47.900Z,3.20
2017-09-01T22:43:16.564Z,3.70
2017-09-01T22:45:44.980Z,3.70
2017-09-01T22:48:13.435Z,3.87
2017-09-01T22:50:41.926Z,3.70
2017-09-01T22:53:10.367Z,3.60
2017-09-01T22:55:38.795Z,4.03
2017-09-01T22:58:07.208Z,3.47
2017-09-01T23:00:35.619Z,3.70
2017-09-01T23:03:04.054Z,4.10
2017-09-01T23:05:32.412Z,3.83
2017-09-01T23:08:00.845Z,4.23
2017-09-01T23:10:29.276Z,3.20
2017-09-01T23:12:57.667Z,3.80
2017-09-01T23:15:26.007Z,4.03
2017-09-01T23:17:54.422Z,2.97
2017-09-01T23:20:22.838Z,3.70
2017-09-01T23:22:51.271Z,4.70
2017-09-01T23:25:19.674Z,4.10
2017-09-01T23:27:48.083Z,4.20
2017-09-01T23:30:16.519Z,3.50
2017-09-01T23:32:44.931Z,3.87
2017-09-01T23:35:13.331Z,3.93
2017-09-01T23:37:41.685Z,3.50
2017-09-01T23:40:10.109Z,3.87
2017-09-01T23:42:38.464Z,4.00
2017-09-01T23:45:06.886Z,3.57
2017-09-01T23:47:35.304Z,4.90
2017-09-01T23:50:03.711Z,4.20
2017-09-01T23:52:32.135Z,4.87
2017-09-01T23:55:00.583Z,4.23
2017-09-01T23:57:28.930Z,5.33
2017-09-01T23:59:57.278Z,5.33
